createdAt,value
2019-01-24T00:02:12.494Z,9.43
2019-01-24T00:04:43.713Z,9.67
2019-01-24T00:07:15.184Z,11.17
2019-01-24T00:09:46.278Z,9.53
2019-01-24T00:12:17.618Z,10.00
2019-01-24T00:14:49.006Z,10.00
2019-01-24T00:17:20.330Z,8.93
2019-01-24T00:19:51.534Z,10.23
2019-01-24T00:22:22.852Z,8.00
2019-01-24T00:24:53.954Z,7.90
2019-01-24T00:27:25.267Z,9.00
2019-01-24T00:29:56.390Z,8.70
2019-01-24T00:32:28.684Z,8.80
2019-01-24T00:34:59.896Z,10.23
2019-01-24T00:37:31.072Z,8.17
2019-01-24T00:40:02.308Z,7.50
2019-01-24T00:42:33.629Z,8.03
2019-01-24T00:45:05.612Z,7.07
2019-01-24T00:47:36.749Z,6.97
2019-01-24T00:50:09.008Z,6.77
2019-01-24T00:52:40.416Z,5.67
2019-01-24T00:55:13.162Z,6.47
2019-01-24T00:57:44.675Z,6.63
2019-01-24T01:00:21.496Z,7.90
2019-01-24T01:02:53.010Z,7.27
2019-01-24T01:05:24.384Z,8.20
2019-01-24T01:07:55.551Z,9.23
2019-01-24T01:10:26.803Z,7.90
2019-01-24T01:12:58.090Z,6.53
2019-01-24T01:15:29.430Z,6.10
2019-01-24T01:18:00.629Z,5.53
2019-01-24T01:20:31.901Z,5.60
2019-01-24T01:23:03.321Z,6.27
2019-01-24T01:25:34.530Z,7.20
2019-01-24T01:28:06.133Z,6.87
2019-01-24T01:30:37.521Z,5.67
2019-01-24T01:33:08.625Z,4.83
2019-01-24T01:35:39.750Z,5.67
2019-01-24T01:38:11.279Z,6.30
2019-01-24T01:40:42.434Z,5.80
2019-01-24T01:43:13.627Z,6.67
2019-01-24T01:45:44.689Z,6.30
2019-01-24T01:48:15.837Z,5.67
2019-01-24T01:50:47.187Z,4.27
2019-01-24T01:53:18.482Z,4.10
2019-01-24T01:55:50.150Z,4.23
2019-01-24T01:58:21.239Z,3.90
2019-01-24T02:00:52.469Z,3.87
2019-01-24T02:03:23.935Z,3.80
2019-01-24T02:05:55.186Z,3.97
2019-01-24T02:08:26.396Z,3.47
2019-01-24T02:10:57.396Z,3.63
2019-01-24T02:13:28.586Z,3.53
2019-01-24T02:15:59.824Z,3.13
2019-01-24T02:18:31.123Z,3.57
2019-01-24T02:21:02.413Z,3.47
2019-01-24T02:23:33.649Z,3.27
2019-01-24T02:26:05.185Z,4.20
2019-01-24T02:28:36.567Z,3.90
2019-01-24T02:31:07.771Z,3.37
2019-01-24T02:33:38.986Z,3.20
2019-01-24T02:36:11.147Z,3.27
2019-01-24T02:38:42.458Z,2.90
2019-01-24T02:41:13.777Z,3.27
2019-01-24T02:43:44.949Z,2.17
2019-01-24T02:46:16.301Z,2.83
2019-01-24T02:48:47.515Z,2.90
2019-01-24T02:51:18.811Z,2.97
2019-01-24T02:53:50.032Z,3.47
2019-01-24T02:56:21.148Z,3.03
2019-01-24T02:58:52.560Z,4.27
2019-01-24T03:01:23.928Z,3.40
2019-01-24T03:03:55.260Z,3.53
2019-01-24T03:06:26.378Z,3.90
2019-01-24T03:08:57.595Z,3.93
2019-01-24T03:11:28.647Z,2.87
2019-01-24T03:13:59.908Z,2.70
2019-01-24T03:16:31.194Z,3.00
2019-01-24T03:19:02.504Z,3.30
2019-01-24T03:21:33.982Z,2.80
2019-01-24T03:24:05.277Z,2.60
2019-01-24T03:26:36.550Z,2.93
2019-01-24T03:29:07.688Z,3.40
2019-01-24T03:31:38.813Z,5.23
2019-01-24T03:34:09.979Z,4.83
2019-01-24T03:36:41.124Z,3.63
2019-01-24T03:39:12.530Z,5.07
2019-01-24T03:41:43.632Z,6.20
2019-01-24T03:44:14.943Z,1.60
2019-01-24T03:46:46.050Z,3.73
2019-01-24T03:49:17.312Z,5.80
2019-01-24T03:51:48.576Z,7.83
2019-01-24T03:54:19.898Z,3.73
2019-01-24T03:56:51.102Z,5.00
2019-01-24T03:59:22.446Z,2.40
2019-01-24T04:01:53.655Z,1.50
2019-01-24T04:04:25.069Z,1.60
2019-01-24T04:06:57.618Z,1.90
2019-01-24T04:09:28.824Z,2.40
2019-01-24T04:12:00.131Z,1.60
2019-01-24T04:14:31.456Z,1.37
2019-01-24T04:17:02.704Z,1.20
2019-01-24T04:19:33.952Z,1.40
2019-01-24T04:22:05.284Z,1.30
2019-01-24T04:24:36.563Z,1.30
2019-01-24T04:27:07.870Z,1.23
2019-01-24T04:29:39.085Z,1.80
2019-01-24T04:32:10.296Z,2.13
2019-01-24T04:34:41.746Z,2.30
2019-01-24T04:37:12.945Z,4.00
2019-01-24T04:39:45.331Z,3.83
2019-01-24T04:42:16.631Z,3.37
2019-01-24T04:44:47.833Z,2.87
2019-01-24T04:47:18.997Z,2.20
2019-01-24T04:49:50.358Z,2.37
2019-01-24T04:52:21.580Z,1.90
2019-01-24T04:54:52.904Z,1.93
2019-01-24T04:57:24.202Z,1.90
2019-01-24T04:59:55.335Z,1.50
2019-01-24T05:02:26.563Z,1.83
2019-01-24T05:04:57.973Z,1.80
2019-01-24T05:07:29.141Z,2.50
2019-01-24T05:10:02.156Z,2.50
2019-01-24T05:12:33.626Z,3.07
2019-01-24T05:15:05.310Z,3.27
2019-01-24T05:17:36.447Z,3.60
2019-01-24T05:20:09.558Z,3.73
2019-01-24T05:22:40.804Z,3.10
2019-01-24T05:25:13.697Z,2.90
2019-01-24T05:27:46.794Z,2.67
2019-01-24T05:30:21.227Z,3.33
2019-01-24T05:32:52.374Z,4.27
2019-01-24T05:35:23.769Z,4.93
2019-01-24T05:37:55.372Z,4.97
2019-01-24T05:40:27.778Z,4.63
2019-01-24T05:42:59.000Z,5.83
2019-01-24T05:45:30.119Z,6.00
2019-01-24T05:48:01.492Z,7.57
2019-01-24T05:50:32.511Z,7.90
2019-01-24T05:53:03.929Z,8.13
2019-01-24T05:55:35.041Z,8.47
2019-01-24T05:58:06.159Z,7.17
2019-01-24T06:00:42.883Z,7.70
2019-01-24T06:03:14.254Z,9.20
2019-01-24T06:05:45.569Z,10.20
2019-01-24T06:08:16.615Z,7.93
2019-01-24T06:10:47.828Z,10.90
2019-01-24T06:13:19.110Z,8.73
2019-01-24T06:15:50.241Z,6.93
2019-01-24T06:18:21.448Z,8.27
2019-01-24T06:20:52.623Z,7.40
2019-01-24T06:23:23.788Z,5.80
2019-01-24T06:25:55.084Z,6.73
2019-01-24T06:28:26.262Z,10.03
2019-01-24T06:30:57.580Z,11.73
2019-01-24T06:33:28.991Z,12.73
2019-01-24T06:36:00.348Z,13.57
2019-01-24T06:38:31.541Z,12.00
2019-01-24T06:41:02.841Z,12.43
2019-01-24T06:43:34.086Z,15.67
2019-01-24T06:46:05.485Z,14.70
2019-01-24T06:48:36.715Z,17.03
2019-01-24T06:51:07.885Z,15.07
2019-01-24T06:53:39.325Z,14.57
2019-01-24T06:56:10.727Z,12.20
2019-01-24T06:58:41.832Z,15.27
2019-01-24T07:01:13.290Z,10.83
2019-01-24T07:03:44.692Z,10.20
2019-01-24T07:06:15.982Z,7.70
2019-01-24T07:08:47.115Z,7.83
2019-01-24T07:11:18.418Z,9.43
2019-01-24T07:13:49.596Z,8.50
2019-01-24T07:16:20.928Z,7.97
2019-01-24T07:18:52.060Z,8.43
2019-01-24T07:21:23.264Z,6.37
2019-01-24T07:23:54.546Z,5.60
2019-01-24T07:26:25.760Z,5.60
2019-01-24T07:28:57.007Z,7.63
2019-01-24T07:31:28.218Z,6.93
2019-01-24T07:33:59.472Z,7.00
2019-01-24T07:36:30.826Z,6.33
2019-01-24T07:39:02.063Z,7.43
2019-01-24T07:41:34.403Z,8.40
2019-01-24T07:44:05.759Z,7.13
2019-01-24T07:46:36.811Z,6.70
2019-01-24T07:49:09.122Z,8.10
2019-01-24T07:51:40.404Z,7.47
2019-01-24T07:54:11.659Z,10.67
2019-01-24T07:56:42.960Z,52.23
2019-01-24T07:59:14.173Z,33.03
2019-01-24T08:01:45.349Z,20.63
2019-01-24T08:04:16.724Z,16.80
2019-01-24T08:06:47.945Z,12.70
2019-01-24T08:09:19.185Z,11.80
2019-01-24T08:11:50.455Z,16.10
2019-01-24T08:14:21.623Z,12.43
2019-01-24T08:16:52.775Z,20.77
2019-01-24T08:19:24.043Z,20.97
2019-01-24T08:21:55.358Z,18.50
2019-01-24T08:24:26.621Z,19.70
2019-01-24T08:27:01.295Z,22.13
2019-01-24T08:29:32.722Z,22.90
2019-01-24T08:32:04.039Z,20.77
2019-01-24T08:34:35.474Z,17.33
2019-01-24T08:37:06.872Z,17.53
2019-01-24T08:39:38.096Z,18.47
2019-01-24T08:42:10.476Z,19.10
2019-01-24T08:44:41.628Z,18.97
2019-01-24T08:47:12.826Z,15.77
2019-01-24T08:49:44.167Z,17.87
2019-01-24T08:52:15.640Z,15.80
2019-01-24T08:54:46.851Z,18.73
2019-01-24T08:57:17.985Z,21.03
2019-01-24T08:59:49.186Z,20.67
2019-01-24T09:02:20.697Z,16.10
2019-01-24T09:04:52.032Z,19.23
2019-01-24T09:07:23.332Z,12.53
2019-01-24T09:09:57.415Z,13.80
2019-01-24T09:12:30.339Z,13.60
2019-01-24T09:15:01.583Z,15.30
2019-01-24T09:17:32.962Z,14.57
2019-01-24T09:20:04.562Z,15.77
2019-01-24T09:22:35.846Z,11.90
2019-01-24T09:25:07.509Z,7.50
2019-01-24T09:27:38.869Z,5.73
2019-01-24T09:30:13.186Z,10.70
2019-01-24T09:32:44.633Z,11.63
2019-01-24T09:35:16.187Z,11.53
2019-01-24T09:37:47.361Z,9.73
2019-01-24T09:40:19.085Z,7.43
2019-01-24T09:42:50.537Z,6.87
2019-01-24T09:45:26.828Z,7.63
2019-01-24T09:48:00.545Z,7.97
2019-01-24T09:50:32.217Z,8.03
2019-01-24T09:53:03.531Z,6.90
2019-01-24T09:55:34.864Z,5.50
2019-01-24T09:58:06.675Z,6.00
2019-01-24T10:00:38.515Z,5.17
2019-01-24T10:03:09.587Z,5.73
2019-01-24T10:05:40.752Z,5.87
2019-01-24T10:08:12.061Z,6.10
2019-01-24T10:10:43.226Z,5.23
2019-01-24T10:13:14.475Z,5.10
2019-01-24T10:15:45.811Z,6.37
2019-01-24T10:18:21.617Z,6.10
2019-01-24T10:20:49.971Z,6.10
2019-01-24T10:23:21.174Z,11.97
2019-01-24T10:25:52.544Z,4.90
2019-01-24T10:28:23.794Z,4.93
2019-01-24T10:30:54.965Z,5.37
2019-01-24T10:33:26.252Z,5.23
2019-01-24T10:35:57.519Z,4.90
2019-01-24T10:38:28.848Z,4.67
2019-01-24T10:41:00.125Z,4.50
2019-01-24T10:43:31.467Z,3.90
2019-01-24T10:46:02.778Z,4.30
2019-01-24T10:48:34.059Z,4.63
2019-01-24T10:51:05.575Z,4.50
2019-01-24T10:53:36.997Z,4.20
2019-01-24T10:56:08.339Z,4.07
2019-01-24T10:58:39.534Z,3.77
2019-01-24T11:01:10.735Z,4.27
2019-01-24T11:03:42.076Z,4.80
2019-01-24T11:06:13.245Z,3.70
2019-01-24T11:08:44.572Z,3.43
2019-01-24T11:11:15.819Z,3.10
2019-01-24T11:13:46.957Z,3.53
2019-01-24T11:16:18.125Z,3.70
2019-01-24T11:18:49.428Z,3.80
2019-01-24T11:21:20.742Z,4.33
2019-01-24T11:23:52.066Z,5.03
2019-01-24T11:26:23.131Z,4.40
2019-01-24T11:28:54.435Z,4.23
2019-01-24T11:31:25.717Z,4.50
2019-01-24T11:33:56.814Z,4.80
2019-01-24T11:36:28.096Z,5.00
2019-01-24T11:38:59.355Z,4.57
2019-01-24T11:41:30.638Z,5.30
2019-01-24T11:44:01.934Z,5.17
2019-01-24T11:46:33.026Z,5.80
2019-01-24T11:49:04.561Z,5.43
2019-01-24T11:51:35.647Z,5.87
2019-01-24T11:54:07.025Z,5.63
2019-01-24T11:56:38.228Z,5.20
2019-01-24T11:59:09.497Z,5.40
2019-01-24T12:01:40.698Z,5.03
2019-01-24T12:04:12.014Z,6.00
2019-01-24T12:06:43.176Z,5.23
2019-01-24T12:09:14.688Z,5.67
2019-01-24T12:11:45.898Z,6.07
2019-01-24T12:14:17.078Z,4.63
2019-01-24T12:16:48.216Z,5.37
2019-01-24T12:19:19.488Z,5.70
2019-01-24T12:21:50.536Z,5.80
2019-01-24T12:24:21.772Z,5.60
2019-01-24T12:26:53.018Z,6.20
2019-01-24T12:29:24.058Z,5.67
2019-01-24T12:31:55.227Z,6.60
2019-01-24T12:34:26.459Z,6.73
2019-01-24T12:36:57.750Z,7.77
2019-01-24T12:39:29.020Z,9.40
2019-01-24T12:42:00.030Z,11.27
2019-01-24T12:44:31.331Z,13.20
2019-01-24T12:47:02.586Z,12.10
2019-01-24T12:49:33.961Z,11.33
2019-01-24T12:52:05.219Z,11.77
2019-01-24T12:54:36.389Z,11.60
2019-01-24T12:57:07.713Z,10.73
2019-01-24T12:59:38.975Z,9.70
2019-01-24T13:02:10.214Z,9.30
2019-01-24T13:04:41.435Z,11.10
2019-01-24T13:07:18.385Z,7.73
2019-01-24T13:09:45.498Z,7.50
2019-01-24T13:12:16.900Z,7.10
2019-01-24T13:14:48.067Z,6.63
2019-01-24T13:17:19.279Z,7.03
2019-01-24T13:19:50.722Z,11.17
2019-01-24T13:22:21.862Z,15.43
2019-01-24T13:24:53.136Z,16.87
2019-01-24T13:27:24.371Z,15.33
2019-01-24T13:29:55.549Z,15.17
2019-01-24T13:32:26.650Z,13.80
2019-01-24T13:34:57.981Z,14.07
2019-01-24T13:37:29.177Z,15.23
2019-01-24T13:40:00.614Z,15.17
2019-01-24T13:42:31.810Z,14.80
2019-01-24T13:45:03.127Z,14.87
2019-01-24T13:47:34.582Z,16.50
2019-01-24T13:50:07.805Z,16.87
2019-01-24T13:52:39.228Z,15.97
2019-01-24T13:55:10.567Z,14.80
2019-01-24T13:57:41.886Z,14.53
2019-01-24T14:00:18.912Z,14.43
2019-01-24T14:02:52.305Z,14.90
2019-01-24T14:05:23.607Z,14.67
2019-01-24T14:07:54.900Z,14.07
2019-01-24T14:10:26.249Z,13.90
2019-01-24T14:12:57.536Z,14.60
2019-01-24T14:15:28.804Z,13.03
2019-01-24T14:18:00.055Z,13.30
2019-01-24T14:20:31.436Z,12.00
2019-01-24T14:23:02.778Z,11.50
2019-01-24T14:25:34.060Z,11.23
2019-01-24T14:28:05.838Z,11.37
2019-01-24T14:30:37.437Z,12.50
2019-01-24T14:33:08.700Z,12.57
2019-01-24T14:35:40.086Z,12.33
2019-01-24T14:38:11.214Z,12.63
2019-01-24T14:40:42.585Z,12.70
2019-01-24T14:43:13.972Z,12.43
2019-01-24T14:45:45.187Z,13.33
2019-01-24T14:48:16.307Z,13.37
2019-01-24T14:50:47.524Z,13.47
2019-01-24T14:53:18.927Z,13.30
2019-01-24T14:55:50.360Z,11.40
2019-01-24T14:58:21.636Z,11.63
2019-01-24T15:01:00.463Z,12.27
2019-01-24T15:03:31.843Z,12.70
2019-01-24T15:06:03.344Z,13.87
2019-01-24T15:08:34.467Z,13.63
2019-01-24T15:11:06.025Z,13.07
2019-01-24T15:13:37.196Z,13.00
2019-01-24T15:16:08.548Z,13.67
2019-01-24T15:18:39.720Z,12.33
2019-01-24T15:21:11.071Z,11.80
2019-01-24T15:23:42.078Z,12.07
2019-01-24T15:26:13.354Z,12.23
2019-01-24T15:28:44.608Z,12.23
2019-01-24T15:31:15.913Z,12.40
2019-01-24T15:33:47.286Z,11.60
2019-01-24T15:36:18.342Z,11.23
2019-01-24T15:38:49.553Z,10.63
2019-01-24T15:41:20.825Z,11.30
2019-01-24T15:43:52.081Z,11.73
2019-01-24T15:46:23.193Z,11.03
2019-01-24T15:48:54.214Z,12.10
2019-01-24T15:51:25.399Z,11.43
2019-01-24T15:53:56.727Z,11.37
2019-01-24T15:56:28.108Z,11.30
2019-01-24T15:58:59.360Z,12.87
2019-01-24T16:01:30.538Z,10.80
2019-01-24T16:04:01.830Z,11.67
2019-01-24T16:06:33.167Z,11.50
2019-01-24T16:09:06.141Z,11.93
2019-01-24T16:11:37.322Z,10.73
2019-01-24T16:14:08.664Z,11.33
2019-01-24T16:16:39.974Z,11.67
2019-01-24T16:19:11.386Z,11.33
2019-01-24T16:21:42.487Z,12.03
2019-01-24T16:24:13.953Z,11.70
2019-01-24T16:26:45.396Z,12.87
2019-01-24T16:29:16.489Z,11.97
2019-01-24T16:31:47.801Z,12.53
2019-01-24T16:34:19.110Z,12.83
2019-01-24T16:36:50.440Z,12.33
2019-01-24T16:39:22.666Z,12.80
2019-01-24T16:41:53.993Z,12.57
2019-01-24T16:44:25.248Z,13.70
2019-01-24T16:46:56.720Z,13.20
2019-01-24T16:49:27.866Z,13.30
2019-01-24T16:51:59.275Z,13.10
2019-01-24T16:54:30.502Z,12.30
2019-01-24T16:57:01.747Z,11.70
2019-01-24T16:59:33.337Z,10.07
2019-01-24T17:02:04.589Z,9.83
2019-01-24T17:04:35.736Z,10.53
2019-01-24T17:07:07.158Z,9.93
2019-01-24T17:09:38.355Z,9.83
2019-01-24T17:12:09.572Z,10.17
2019-01-24T17:14:40.834Z,10.80
2019-01-24T17:17:12.066Z,11.30
2019-01-24T17:19:43.101Z,12.67
2019-01-24T17:22:14.178Z,12.57
2019-01-24T17:24:45.371Z,12.77
2019-01-24T17:27:16.775Z,13.30
2019-01-24T17:29:47.951Z,13.37
2019-01-24T17:32:19.218Z,13.10
2019-01-24T17:34:50.375Z,13.13
2019-01-24T17:37:21.762Z,14.23
2019-01-24T17:39:54.270Z,13.43
2019-01-24T17:42:25.734Z,13.57
2019-01-24T17:44:57.066Z,13.20
2019-01-24T17:47:28.289Z,13.40
2019-01-24T17:49:59.592Z,14.00
2019-01-24T17:52:30.945Z,13.77
2019-01-24T17:55:02.127Z,14.23
2019-01-24T17:57:33.527Z,14.50
2019-01-24T18:00:07.134Z,12.93
2019-01-24T18:02:38.376Z,14.70
2019-01-24T18:05:11.502Z,14.40
2019-01-24T18:07:43.056Z,15.47
2019-01-24T18:10:20.457Z,14.77
2019-01-24T18:12:51.978Z,15.27
2019-01-24T18:15:25.390Z,15.33
2019-01-24T18:17:56.931Z,14.97
2019-01-24T18:20:30.603Z,15.23
2019-01-24T18:23:05.253Z,19.10
2019-01-24T18:25:36.681Z,15.83
2019-01-24T18:28:11.461Z,14.90
2019-01-24T18:30:43.070Z,15.30
2019-01-24T18:33:14.613Z,13.87
2019-01-24T18:35:46.050Z,14.10
2019-01-24T18:38:17.386Z,14.20
2019-01-24T18:40:48.761Z,14.63
2019-01-24T18:43:23.250Z,13.80
2019-01-24T18:45:56.958Z,14.43
2019-01-24T18:48:28.220Z,14.30
2019-01-24T18:50:59.418Z,16.07
2019-01-24T18:53:30.788Z,15.43
2019-01-24T18:56:03.105Z,14.97
2019-01-24T18:58:35.084Z,14.00
2019-01-24T19:01:06.463Z,13.53
2019-01-24T19:03:37.873Z,13.83
2019-01-24T19:06:09.258Z,13.87
2019-01-24T19:08:45.825Z,13.93
2019-01-24T19:11:13.496Z,13.73
2019-01-24T19:13:44.965Z,14.80
2019-01-24T19:16:16.255Z,14.63
2019-01-24T19:18:47.494Z,15.77
2019-01-24T19:21:18.763Z,16.43
2019-01-24T19:23:50.103Z,16.57
2019-01-24T19:26:21.495Z,16.37
2019-01-24T19:28:53.047Z,17.80
2019-01-24T19:31:24.313Z,15.13
2019-01-24T19:33:55.660Z,16.93
2019-01-24T19:36:26.986Z,16.10
2019-01-24T19:38:58.309Z,16.73
2019-01-24T19:41:29.465Z,17.43
2019-01-24T19:44:00.866Z,17.20
2019-01-24T19:46:32.209Z,17.67
2019-01-24T19:49:04.788Z,17.73
2019-01-24T19:51:36.162Z,16.77
2019-01-24T19:54:07.554Z,15.67
2019-01-24T19:56:38.780Z,16.27
2019-01-24T19:59:09.911Z,15.47
2019-01-24T20:01:41.120Z,14.53
2019-01-24T20:04:13.448Z,15.03
2019-01-24T20:06:44.691Z,15.60
2019-01-24T20:09:15.972Z,15.67
2019-01-24T20:11:47.277Z,15.57
2019-01-24T20:14:18.623Z,16.33
2019-01-24T20:16:49.945Z,15.23
2019-01-24T20:19:21.218Z,15.37
2019-01-24T20:21:52.383Z,15.23
2019-01-24T20:24:23.739Z,14.83
2019-01-24T20:26:55.062Z,16.87
2019-01-24T20:29:26.404Z,15.33
2019-01-24T20:31:57.918Z,15.07
2019-01-24T20:34:29.130Z,14.70
2019-01-24T20:37:00.553Z,14.73
2019-01-24T20:39:31.858Z,16.20
2019-01-24T20:42:03.131Z,14.67
2019-01-24T20:44:34.383Z,15.40
2019-01-24T20:47:05.856Z,14.50
2019-01-24T20:49:37.191Z,15.17
2019-01-24T20:52:08.745Z,15.57
2019-01-24T20:54:39.979Z,15.63
2019-01-24T20:57:11.157Z,16.93
2019-01-24T20:59:42.601Z,16.97
2019-01-24T21:02:13.781Z,17.17
2019-01-24T21:04:45.078Z,16.63
2019-01-24T21:07:16.514Z,16.30
2019-01-24T21:09:47.943Z,16.07
2019-01-24T21:12:19.099Z,14.43
2019-01-24T21:14:50.655Z,16.00
2019-01-24T21:17:21.929Z,16.03
2019-01-24T21:19:53.392Z,16.97
2019-01-24T21:22:24.857Z,16.53
2019-01-24T21:24:56.102Z,17.23
2019-01-24T21:27:28.879Z,16.17
2019-01-24T21:30:00.257Z,17.40
2019-01-24T21:32:31.391Z,17.47
2019-01-24T21:35:02.608Z,17.37
2019-01-24T21:37:33.916Z,16.83
2019-01-24T21:40:06.344Z,17.33
2019-01-24T21:42:37.664Z,16.73
2019-01-24T21:45:12.645Z,16.47
2019-01-24T21:47:44.091Z,17.83
2019-01-24T21:50:17.713Z,17.93
2019-01-24T21:52:49.128Z,17.63
2019-01-24T21:55:21.537Z,16.73
2019-01-24T21:57:54.028Z,16.10
2019-01-24T22:00:26.743Z,17.03
2019-01-24T22:02:58.255Z,17.50
2019-01-24T22:05:30.913Z,17.53
2019-01-24T22:08:02.224Z,17.27
2019-01-24T22:10:33.570Z,17.60
2019-01-24T22:13:05.383Z,18.20
2019-01-24T22:15:36.704Z,17.70
2019-01-24T22:18:08.601Z,18.70
2019-01-24T22:20:39.943Z,18.73
2019-01-24T22:23:11.116Z,17.73
2019-01-24T22:25:42.432Z,19.77
2019-01-24T22:28:13.660Z,18.27
2019-01-24T22:30:49.100Z,19.40
2019-01-24T22:33:20.509Z,19.57
2019-01-24T22:35:51.676Z,19.87
2019-01-24T22:38:23.032Z,18.63
2019-01-24T22:40:54.302Z,18.13
2019-01-24T22:43:25.631Z,18.93
2019-01-24T22:45:56.972Z,18.90
2019-01-24T22:48:28.128Z,19.30
2019-01-24T22:50:59.458Z,18.43
2019-01-24T22:53:30.604Z,17.57
2019-01-24T22:56:01.906Z,19.70
2019-01-24T22:58:33.230Z,19.67
2019-01-24T23:01:13.459Z,19.17
2019-01-24T23:03:48.494Z,18.60
2019-01-24T23:06:20.081Z,19.13
2019-01-24T23:08:51.282Z,19.67
2019-01-24T23:11:23.660Z,19.47
2019-01-24T23:13:54.927Z,19.10
2019-01-24T23:16:26.302Z,22.07
2019-01-24T23:18:57.613Z,21.07
2019-01-24T23:21:28.933Z,19.70
2019-01-24T23:24:00.281Z,20.70
2019-01-24T23:26:31.688Z,20.33
2019-01-24T23:29:03.065Z,21.83
2019-01-24T23:31:34.446Z,23.03
2019-01-24T23:34:06.330Z,23.47
2019-01-24T23:36:37.585Z,23.87
2019-01-24T23:39:10.789Z,25.07
2019-01-24T23:41:42.038Z,22.70
2019-01-24T23:44:13.253Z,24.20
2019-01-24T23:46:44.532Z,25.53
2019-01-24T23:49:15.770Z,24.73
2019-01-24T23:51:47.163Z,25.20
2019-01-24T23:54:18.475Z,26.23
2019-01-24T23:56:49.615Z,27.53
2019-01-24T23:59:21.008Z,24.67
